sensor_id;sensor_type;location;lat;lon;timestamp;pressure;altitude;pressure_sealevel;temperature;humidity
64698;BME280;51124;53.394;-6.294;2022-10-17T00:00:06;99070.59;;;17.68;10.12
64698;BME280;51124;53.394;-6.294;2022-10-17T00:02:40;99063.93;;;17.61;10.19
64698;BME280;51124;53.394;-6.294;2022-10-17T00:05:14;99067.02;;;17.41;10.34
64698;BME280;51124;53.394;-6.294;2022-10-17T00:07:47;99067.91;;;17.17;10.44
64698;BME280;51124;53.394;-6.294;2022-10-17T00:10:22;99069.94;;;17.58;10.26
64698;BME280;51124;53.394;-6.294;2022-10-17T00:12:55;99053.10;;;17.64;10.07
64698;BME280;51124;53.394;-6.294;2022-10-17T00:15:29;99058.37;;;16.72;10.62
64698;BME280;51124;53.394;-6.294;2022-10-17T00:18:03;99054.69;;;16.71;10.55
64698;BME280;51124;53.394;-6.294;2022-10-17T00:20:37;99048.80;;;17.17;10.36
64698;BME280;51124;53.394;-6.294;2022-10-17T00:23:10;99053.54;;;17.30;10.50
64698;BME280;51124;53.394;-6.294;2022-10-17T00:25:44;99047.88;;;17.05;10.38
64698;BME280;51124;53.394;-6.294;2022-10-17T00:28:18;99040.41;;;17.49;10.18
64698;BME280;51124;53.394;-6.294;2022-10-17T00:30:55;99045.11;;;16.93;10.38
64698;BME280;51124;53.394;-6.294;2022-10-17T00:33:18;99057.87;;;16.76;10.44
64698;BME280;51124;53.394;-6.294;2022-10-17T00:36:02;99062.16;;;17.68;10.05
64698;BME280;51124;53.394;-6.294;2022-10-17T00:38:26;99065.83;;;18.10;10.06
64698;BME280;51124;53.394;-6.294;2022-10-17T00:41:00;99077.77;;;18.17;10.20
64698;BME280;51124;53.394;-6.294;2022-10-17T00:43:54;99085.53;;;19.70;10.75
64698;BME280;51124;53.394;-6.294;2022-10-17T00:46:08;99100.07;;;18.01;11.28
64698;BME280;51124;53.394;-6.294;2022-10-17T00:48:43;99103.12;;;17.54;10.92
64698;BME280;51124;53.394;-6.294;2022-10-17T00:51:08;99100.94;;;20.68;11.52
64698;BME280;51124;53.394;-6.294;2022-10-17T00:53:42;99108.93;;;20.12;12.17
64698;BME280;51124;53.394;-6.294;2022-10-17T00:56:17;99108.52;;;19.66;12.45
64698;BME280;51124;53.394;-6.294;2022-10-17T00:58:42;99121.08;;;19.98;12.63
64698;BME280;51124;53.394;-6.294;2022-10-17T01:01:16;99122.07;;;19.52;12.97
64698;BME280;51124;53.394;-6.294;2022-10-17T01:03:50;99123.74;;;20.02;12.93
64698;BME280;51124;53.394;-6.294;2022-10-17T01:06:25;99127.68;;;19.49;12.97
64698;BME280;51124;53.394;-6.294;2022-10-17T01:08:59;99129.84;;;20.18;12.88
64698;BME280;51124;53.394;-6.294;2022-10-17T01:11:38;99132.88;;;20.09;12.93
64698;BME280;51124;53.394;-6.294;2022-10-17T01:14:11;99123.07;;;19.75;13.19
64698;BME280;51124;53.394;-6.294;2022-10-17T01:16:44;99129.27;;;19.76;13.36
64698;BME280;51124;53.394;-6.294;2022-10-17T01:19:31;99131.32;;;19.70;13.12
64698;BME280;51124;53.394;-6.294;2022-10-17T01:21:44;99127.30;;;20.00;13.02
64698;BME280;51124;53.394;-6.294;2022-10-17T01:24:40;99135.56;;;18.94;13.37
64698;BME280;51124;53.394;-6.294;2022-10-17T01:26:54;99134.73;;;18.89;13.65
64698;BME280;51124;53.394;-6.294;2022-10-17T01:29:30;99136.54;;;18.77;13.47
64698;BME280;51124;53.394;-6.294;2022-10-17T01:31:47;99139.90;;;18.96;13.48
64698;BME280;51124;53.394;-6.294;2022-10-17T01:34:19;99140.20;;;19.49;13.12
64698;BME280;51124;53.394;-6.294;2022-10-17T01:36:49;99143.40;;;20.48;13.06
64698;BME280;51124;53.394;-6.294;2022-10-17T01:39:22;99150.19;;;18.79;13.20
64698;BME280;51124;53.394;-6.294;2022-10-17T01:41:51;99155.34;;;16.73;12.88
64698;BME280;51124;53.394;-6.294;2022-10-17T01:44:24;99158.85;;;16.66;12.42
64698;BME280;51124;53.394;-6.294;2022-10-17T01:46:52;99163.03;;;17.20;12.04
64698;BME280;51124;53.394;-6.294;2022-10-17T01:49:20;99179.63;;;17.47;11.47
64698;BME280;51124;53.394;-6.294;2022-10-17T01:51:48;99167.80;;;17.52;11.28
64698;BME280;51124;53.394;-6.294;2022-10-17T01:54:17;99166.31;;;16.91;11.02
64698;BME280;51124;53.394;-6.294;2022-10-17T01:56:45;99165.59;;;16.65;11.21
64698;BME280;51124;53.394;-6.294;2022-10-17T01:59:13;99151.24;;;16.93;11.13
64698;BME280;51124;53.394;-6.294;2022-10-17T02:01:38;99160.64;;;17.26;11.03
64698;BME280;51124;53.394;-6.294;2022-10-17T02:04:05;99160.17;;;17.58;10.63
64698;BME280;51124;53.394;-6.294;2022-10-17T02:06:34;99156.11;;;18.18;10.43
64698;BME280;51124;53.394;-6.294;2022-10-17T02:08:57;99158.11;;;17.74;10.37
64698;BME280;51124;53.394;-6.294;2022-10-17T02:11:31;99152.46;;;17.22;10.43
64698;BME280;51124;53.394;-6.294;2022-10-17T02:14:14;99149.09;;;17.26;10.54
64698;BME280;51124;53.394;-6.294;2022-10-17T02:16:36;99149.40;;;16.97;10.65
64698;BME280;51124;53.394;-6.294;2022-10-17T02:19:10;99148.09;;;17.36;10.47
64698;BME280;51124;53.394;-6.294;2022-10-17T02:21:40;99144.10;;;15.37;10.87
64698;BME280;51124;53.394;-6.294;2022-10-17T02:24:17;99120.17;;;16.07;10.83
64698;BME280;51124;53.394;-6.294;2022-10-17T02:26:48;99140.82;;;17.50;10.31
64698;BME280;51124;53.394;-6.294;2022-10-17T02:29:17;99131.30;;;17.25;10.22
64698;BME280;51124;53.394;-6.294;2022-10-17T02:31:46;99141.06;;;16.88;10.47
64698;BME280;51124;53.394;-6.294;2022-10-17T02:34:13;99135.40;;;15.78;10.73
64698;BME280;51124;53.394;-6.294;2022-10-17T02:36:42;99136.19;;;16.91;10.58
64698;BME280;51124;53.394;-6.294;2022-10-17T02:39:08;99149.21;;;16.66;10.51
64698;BME280;51124;53.394;-6.294;2022-10-17T02:41:35;99141.17;;;17.17;10.55
64698;BME280;51124;53.394;-6.294;2022-10-17T02:44:01;99139.84;;;17.51;10.20
64698;BME280;51124;53.394;-6.294;2022-10-17T02:46:27;99153.38;;;17.65;10.16
64698;BME280;51124;53.394;-6.294;2022-10-17T02:48:54;99141.91;;;17.09;10.34
64698;BME280;51124;53.394;-6.294;2022-10-17T02:51:26;99132.40;;;17.08;10.24
64698;BME280;51124;53.394;-6.294;2022-10-17T02:53:56;99132.76;;;16.13;10.46
64698;BME280;51124;53.394;-6.294;2022-10-17T02:56:25;99125.74;;;16.69;10.54
64698;BME280;51124;53.394;-6.294;2022-10-17T02:58:53;99138.63;;;15.98;10.64
64698;BME280;51124;53.394;-6.294;2022-10-17T03:01:19;99126.45;;;15.96;10.91
64698;BME280;51124;53.394;-6.294;2022-10-17T03:04:04;99132.04;;;16.96;10.54
64698;BME280;51124;53.394;-6.294;2022-10-17T03:06:28;99144.86;;;16.99;10.51
64698;BME280;51124;53.394;-6.294;2022-10-17T03:09:02;99118.48;;;16.67;10.64
64698;BME280;51124;53.394;-6.294;2022-10-17T03:11:36;99114.37;;;16.93;10.44
64698;BME280;51124;53.394;-6.294;2022-10-17T03:14:10;99126.79;;;17.24;10.39
64698;BME280;51124;53.394;-6.294;2022-10-17T03:16:43;99137.04;;;16.83;10.59
64698;BME280;51124;53.394;-6.294;2022-10-17T03:19:17;99140.00;;;15.62;10.77
64698;BME280;51124;53.394;-6.294;2022-10-17T03:21:50;99141.20;;;16.82;10.35
64698;BME280;51124;53.394;-6.294;2022-10-17T03:24:24;99164.68;;;16.39;10.52
64698;BME280;51124;53.394;-6.294;2022-10-17T03:26:58;99151.34;;;16.87;10.37
64698;BME280;51124;53.394;-6.294;2022-10-17T03:29:31;99157.65;;;19.68;10.52
64698;BME280;51124;53.394;-6.294;2022-10-17T03:32:05;99157.47;;;18.42;11.19
64698;BME280;51124;53.394;-6.294;2022-10-17T03:34:39;99161.12;;;17.51;11.13
64698;BME280;51124;53.394;-6.294;2022-10-17T03:37:13;99156.80;;;20.77;11.55
64698;BME280;51124;53.394;-6.294;2022-10-17T03:39:47;99176.52;;;20.17;12.10
64698;BME280;51124;53.394;-6.294;2022-10-17T03:42:22;99155.03;;;19.52;12.52
64698;BME280;51124;53.394;-6.294;2022-10-17T03:44:56;99169.26;;;18.55;13.02
64698;BME280;51124;53.394;-6.294;2022-10-17T03:47:31;99190.38;;;20.11;12.83
64698;BME280;51124;53.394;-6.294;2022-10-17T03:50:05;99196.22;;;18.39;13.32
64698;BME280;51124;53.394;-6.294;2022-10-17T03:52:40;99195.97;;;20.29;12.77
64698;BME280;51124;53.394;-6.294;2022-10-17T03:55:14;99202.58;;;18.45;13.45
64698;BME280;51124;53.394;-6.294;2022-10-17T03:57:49;99210.95;;;19.31;13.20
64698;BME280;51124;53.394;-6.294;2022-10-17T04:00:23;99212.14;;;19.28;13.21
64698;BME280;51124;53.394;-6.294;2022-10-17T04:02:57;99215.65;;;19.02;13.35
64698;BME280;51124;53.394;-6.294;2022-10-17T04:05:31;99219.06;;;19.80;13.04
64698;BME280;51124;53.394;-6.294;2022-10-17T04:08:06;99211.01;;;19.67;13.20
64698;BME280;51124;53.394;-6.294;2022-10-17T04:10:40;99210.31;;;19.26;13.55
64698;BME280;51124;53.394;-6.294;2022-10-17T04:13:14;99219.58;;;19.23;13.38
64698;BME280;51124;53.394;-6.294;2022-10-17T04:15:53;99243.15;;;19.53;13.25
64698;BME280;51124;53.394;-6.294;2022-10-17T04:18:17;99226.77;;;19.20;13.55
64698;BME280;51124;53.394;-6.294;2022-10-17T04:20:51;99226.50;;;19.21;13.41
64698;BME280;51124;53.394;-6.294;2022-10-17T04:23:25;99224.33;;;19.85;13.30
64698;BME280;51124;53.394;-6.294;2022-10-17T04:26:00;99257.14;;;18.85;13.46
64698;BME280;51124;53.394;-6.294;2022-10-17T04:28:35;99232.77;;;16.60;13.03
64698;BME280;51124;53.394;-6.294;2022-10-17T04:31:02;99246.10;;;16.69;12.35
64698;BME280;51124;53.394;-6.294;2022-10-17T04:33:26;99227.29;;;17.85;11.94
64698;BME280;51124;53.394;-6.294;2022-10-17T04:36:01;99241.28;;;17.19;11.73
64698;BME280;51124;53.394;-6.294;2022-10-17T04:38:25;99252.22;;;17.26;11.35
64698;BME280;51124;53.394;-6.294;2022-10-17T04:41:01;99253.39;;;17.78;11.21
64698;BME280;51124;53.394;-6.294;2022-10-17T04:43:25;99264.26;;;18.31;10.79
64698;BME280;51124;53.394;-6.294;2022-10-17T04:45:59;99267.60;;;17.99;10.89
64698;BME280;51124;53.394;-6.294;2022-10-17T04:48:33;99275.09;;;17.53;10.92
64698;BME280;51124;53.394;-6.294;2022-10-17T04:51:10;99298.30;;;17.01;10.73
64698;BME280;51124;53.394;-6.294;2022-10-17T04:53:36;99286.32;;;16.03;11.10
64698;BME280;51124;53.394;-6.294;2022-10-17T04:56:00;99313.51;;;16.85;10.81
64698;BME280;51124;53.394;-6.294;2022-10-17T04:58:34;99312.35;;;16.32;10.90
64698;BME280;51124;53.394;-6.294;2022-10-17T05:01:09;99318.61;;;16.13;10.80
64698;BME280;51124;53.394;-6.294;2022-10-17T05:03:34;99327.06;;;15.89;10.95
64698;BME280;51124;53.394;-6.294;2022-10-17T05:06:11;99344.30;;;16.60;10.70
64698;BME280;51124;53.394;-6.294;2022-10-17T05:08:35;99318.47;;;15.71;10.79
64698;BME280;51124;53.394;-6.294;2022-10-17T05:11:15;99321.00;;;15.87;10.61
64698;BME280;51124;53.394;-6.294;2022-10-17T05:13:39;99312.55;;;17.43;10.27
64698;BME280;51124;53.394;-6.294;2022-10-17T05:16:13;99334.37;;;16.66;10.46
64698;BME280;51124;53.394;-6.294;2022-10-17T05:18:48;99340.32;;;15.81;10.65
64698;BME280;51124;53.394;-6.294;2022-10-17T05:21:11;99332.96;;;17.13;10.40
64698;BME280;51124;53.394;-6.294;2022-10-17T05:23:45;99339.07;;;17.13;10.25
64698;BME280;51124;53.394;-6.294;2022-10-17T05:26:20;99336.90;;;17.24;10.22
64698;BME280;51124;53.394;-6.294;2022-10-17T05:28:53;99348.98;;;15.85;10.64
64698;BME280;51124;53.394;-6.294;2022-10-17T05:31:28;99329.13;;;16.94;10.37
64698;BME280;51124;53.394;-6.294;2022-10-17T05:34:02;99353.54;;;16.87;10.29
64698;BME280;51124;53.394;-6.294;2022-10-17T05:36:36;99360.78;;;17.82;9.95
64698;BME280;51124;53.394;-6.294;2022-10-17T05:39:11;99368.54;;;16.68;10.31
64698;BME280;51124;53.394;-6.294;2022-10-17T05:41:45;99362.48;;;17.16;10.25
64698;BME280;51124;53.394;-6.294;2022-10-17T05:44:18;99366.98;;;17.31;10.22
64698;BME280;51124;53.394;-6.294;2022-10-17T05:46:52;99373.98;;;15.98;10.45
64698;BME280;51124;53.394;-6.294;2022-10-17T05:49:26;99376.59;;;16.79;10.72
64698;BME280;51124;53.394;-6.294;2022-10-17T05:52:00;99389.68;;;17.20;10.49
64698;BME280;51124;53.394;-6.294;2022-10-17T05:54:33;99392.78;;;16.61;10.50
64698;BME280;51124;53.394;-6.294;2022-10-17T05:57:07;99399.78;;;17.53;10.18
64698;BME280;51124;53.394;-6.294;2022-10-17T05:59:41;99386.69;;;17.28;10.19
64698;BME280;51124;53.394;-6.294;2022-10-17T06:02:14;99417.28;;;16.68;10.62
64698;BME280;51124;53.394;-6.294;2022-10-17T06:04:48;99402.64;;;17.73;10.20
64698;BME280;51124;53.394;-6.294;2022-10-17T06:07:21;99430.39;;;16.32;10.50
64698;BME280;51124;53.394;-6.294;2022-10-17T06:09:55;99429.26;;;17.53;10.20
64698;BME280;51124;53.394;-6.294;2022-10-17T06:12:29;99428.89;;;16.45;10.46
64698;BME280;51124;53.394;-6.294;2022-10-17T06:15:02;99441.69;;;16.19;10.61
64698;BME280;51124;53.394;-6.294;2022-10-17T06:17:37;99463.66;;;18.68;11.22
64698;BME280;51124;53.394;-6.294;2022-10-17T06:20:10;99458.00;;;18.76;11.34
64698;BME280;51124;53.394;-6.294;2022-10-17T06:22:44;99458.37;;;17.60;11.39
64698;BME280;51124;53.394;-6.294;2022-10-17T06:25:18;99481.64;;;20.04;11.65
64698;BME280;51124;53.394;-6.294;2022-10-17T06:27:52;99492.49;;;19.51;12.02
64698;BME280;51124;53.394;-6.294;2022-10-17T06:30:27;99495.90;;;19.84;12.28
64698;BME280;51124;53.394;-6.294;2022-10-17T06:33:01;99492.21;;;17.78;13.32
64698;BME280;51124;53.394;-6.294;2022-10-17T06:35:35;99501.16;;;18.02;13.24
64698;BME280;51124;53.394;-6.294;2022-10-17T06:38:09;99509.78;;;18.98;13.37
64698;BME280;51124;53.394;-6.294;2022-10-17T06:40:43;99506.07;;;18.79;13.26
64698;BME280;51124;53.394;-6.294;2022-10-17T06:43:18;99537.57;;;19.26;13.03
64698;BME280;51124;53.394;-6.294;2022-10-17T06:45:52;99515.18;;;18.53;13.19
64698;BME280;51124;53.394;-6.294;2022-10-17T06:48:26;99525.09;;;18.88;13.28
64698;BME280;51124;53.394;-6.294;2022-10-17T06:51:01;99540.86;;;18.84;13.35
64698;BME280;51124;53.394;-6.294;2022-10-17T06:53:27;99547.05;;;19.46;13.23
64698;BME280;51124;53.394;-6.294;2022-10-17T06:55:51;99560.07;;;18.79;13.53
64698;BME280;51124;53.394;-6.294;2022-10-17T06:58:26;99565.81;;;18.77;13.56
64698;BME280;51124;53.394;-6.294;2022-10-17T07:01:00;99550.06;;;19.62;13.21
64698;BME280;51124;53.394;-6.294;2022-10-17T07:03:35;99573.33;;;18.81;13.20
64698;BME280;51124;53.394;-6.294;2022-10-17T07:06:09;99583.89;;;19.05;13.44
64698;BME280;51124;53.394;-6.294;2022-10-17T07:08:44;99599.47;;;18.50;13.84
64698;BME280;51124;53.394;-6.294;2022-10-17T07:11:20;99596.73;;;19.34;13.26
64698;BME280;51124;53.394;-6.294;2022-10-17T07:13:45;99604.37;;;18.50;13.65
64698;BME280;51124;53.394;-6.294;2022-10-17T07:16:19;99605.67;;;16.16;13.47
64698;BME280;51124;53.394;-6.294;2022-10-17T07:18:53;99625.78;;;16.54;12.32
64698;BME280;51124;53.394;-6.294;2022-10-17T07:21:27;99626.53;;;16.87;11.95
64698;BME280;51124;53.394;-6.294;2022-10-17T07:24:01;99639.07;;;16.75;11.57
64698;BME280;51124;53.394;-6.294;2022-10-17T07:26:34;99614.84;;;16.04;11.52
64698;BME280;51124;53.394;-6.294;2022-10-17T07:29:09;99647.55;;;16.81;11.54
64698;BME280;51124;53.394;-6.294;2022-10-17T07:31:43;99664.34;;;16.40;11.62
64698;BME280;51124;53.394;-6.294;2022-10-17T07:34:17;99653.26;;;18.73;10.64
64698;BME280;51124;53.394;-6.294;2022-10-17T07:36:50;99673.94;;;16.99;11.14
64698;BME280;51124;53.394;-6.294;2022-10-17T07:39:24;99676.96;;;17.53;10.91
64698;BME280;51124;53.394;-6.294;2022-10-17T07:41:58;99689.35;;;18.96;10.46
64698;BME280;51124;53.394;-6.294;2022-10-17T07:44:33;99684.34;;;17.07;11.01
64698;BME280;51124;53.394;-6.294;2022-10-17T07:47:07;99695.33;;;16.58;10.77
64698;BME280;51124;53.394;-6.294;2022-10-17T07:49:40;99687.25;;;16.88;10.74
64698;BME280;51124;53.394;-6.294;2022-10-17T07:52:15;99694.13;;;18.89;9.40
64698;BME280;51124;53.394;-6.294;2022-10-17T07:54:54;99689.17;;;19.76;9.29
64698;BME280;51124;53.394;-6.294;2022-10-17T07:57:18;99709.74;;;19.47;9.15
64698;BME280;51124;53.394;-6.294;2022-10-17T07:59:52;99681.80;;;20.18;9.04
64698;BME280;51124;53.394;-6.294;2022-10-17T08:02:26;99711.02;;;18.57;9.51
64698;BME280;51124;53.394;-6.294;2022-10-17T08:05:00;99706.07;;;19.02;9.32
64698;BME280;51124;53.394;-6.294;2022-10-17T08:07:34;99703.99;;;20.26;8.62
64698;BME280;51124;53.394;-6.294;2022-10-17T08:10:10;99734.08;;;18.59;9.58
64698;BME280;51124;53.394;-6.294;2022-10-17T08:12:34;99740.48;;;16.74;10.29
64698;BME280;51124;53.394;-6.294;2022-10-17T08:15:09;99745.08;;;16.84;10.08
64698;BME280;51124;53.394;-6.294;2022-10-17T08:17:43;99758.36;;;18.00;9.74
64698;BME280;51124;53.394;-6.294;2022-10-17T08:20:16;99763.28;;;19.04;9.21
64698;BME280;51124;53.394;-6.294;2022-10-17T08:22:51;99765.93;;;20.07;9.21
64698;BME280;51124;53.394;-6.294;2022-10-17T08:25:25;99785.56;;;18.37;9.43
64698;BME280;51124;53.394;-6.294;2022-10-17T08:27:58;99799.22;;;16.76;9.81
64698;BME280;51124;53.394;-6.294;2022-10-17T08:30:32;99810.11;;;17.07;10.01
64698;BME280;51124;53.394;-6.294;2022-10-17T08:33:06;99809.13;;;17.69;10.30
64698;BME280;51124;53.394;-6.294;2022-10-17T08:35:40;99821.87;;;17.92;10.14
64698;BME280;51124;53.394;-6.294;2022-10-17T08:38:13;99819.03;;;19.93;9.66
64698;BME280;51124;53.394;-6.294;2022-10-17T08:40:47;99837.55;;;18.51;9.92
64698;BME280;51124;53.394;-6.294;2022-10-17T08:43:30;99861.70;;;18.70;9.80
64698;BME280;51124;53.394;-6.294;2022-10-17T08:45:51;99867.86;;;18.47;10.07
64698;BME280;51124;53.394;-6.294;2022-10-17T08:48:20;99856.01;;;18.85;9.80
64698;BME280;51124;53.394;-6.294;2022-10-17T08:50:48;99869.42;;;20.10;9.70
64698;BME280;51124;53.394;-6.294;2022-10-17T08:53:17;99880.44;;;18.75;10.32
64698;BME280;51124;53.394;-6.294;2022-10-17T08:55:45;99893.58;;;17.44;10.46
64698;BME280;51124;53.394;-6.294;2022-10-17T08:58:12;99891.03;;;18.32;10.12
64698;BME280;51124;53.394;-6.294;2022-10-17T09:00:36;99903.56;;;17.35;10.37
64698;BME280;51124;53.394;-6.294;2022-10-17T09:03:27;99913.82;;;18.59;10.00
64698;BME280;51124;53.394;-6.294;2022-10-17T09:05:49;99914.89;;;18.43;10.22
64698;BME280;51124;53.394;-6.294;2022-10-17T09:08:21;99907.00;;;21.16;10.33
64698;BME280;51124;53.394;-6.294;2022-10-17T09:10:56;99916.81;;;21.05;10.77
64698;BME280;51124;53.394;-6.294;2022-10-17T09:13:29;99923.67;;;18.13;11.16
64698;BME280;51124;53.394;-6.294;2022-10-17T09:15:58;99934.09;;;21.71;11.17
64698;BME280;51124;53.394;-6.294;2022-10-17T09:18:17;99937.74;;;21.27;11.88
64698;BME280;51124;53.394;-6.294;2022-10-17T09:20:44;99924.63;;;21.86;11.86
64698;BME280;51124;53.394;-6.294;2022-10-17T09:23:14;99931.27;;;21.04;12.17
64698;BME280;51124;53.394;-6.294;2022-10-17T09:25:42;99949.10;;;20.79;12.53
64698;BME280;51124;53.394;-6.294;2022-10-17T09:28:13;99952.26;;;21.32;12.44
64698;BME280;51124;53.394;-6.294;2022-10-17T09:30:42;99981.02;;;21.79;12.24
64698;BME280;51124;53.394;-6.294;2022-10-17T09:33:11;99984.01;;;21.95;12.25
64698;BME280;51124;53.394;-6.294;2022-10-17T09:35:36;99983.91;;;20.47;12.54
64698;BME280;51124;53.394;-6.294;2022-10-17T09:38:15;99992.04;;;21.39;12.45
64698;BME280;51124;53.394;-6.294;2022-10-17T09:40:39;99997.17;;;21.41;12.43
64698;BME280;51124;53.394;-6.294;2022-10-17T09:43:13;100005.27;;;20.99;12.69
64698;BME280;51124;53.394;-6.294;2022-10-17T09:45:55;100004.26;;;21.30;12.52
64698;BME280;51124;53.394;-6.294;2022-10-17T09:48:25;100024.50;;;21.11;12.61
64698;BME280;51124;53.394;-6.294;2022-10-17T09:50:52;100026.12;;;20.51;12.79
64698;BME280;51124;53.394;-6.294;2022-10-17T09:53:22;100021.23;;;21.39;12.71
64698;BME280;51124;53.394;-6.294;2022-10-17T09:55:50;100034.38;;;22.53;12.14
64698;BME280;51124;53.394;-6.294;2022-10-17T09:58:16;100040.55;;;22.74;11.95
64698;BME280;51124;53.394;-6.294;2022-10-17T10:00:50;100052.65;;;21.24;12.51
64698;BME280;51124;53.394;-6.294;2022-10-17T10:03:25;100052.13;;;21.37;12.41
64698;BME280;51124;53.394;-6.294;2022-10-17T10:06:01;100067.79;;;19.86;12.86
64698;BME280;51124;53.394;-6.294;2022-10-17T10:08:28;100071.63;;;18.41;12.18
64698;BME280;51124;53.394;-6.294;2022-10-17T10:10:56;100074.72;;;18.38;11.87
64698;BME280;51124;53.394;-6.294;2022-10-17T10:13:24;100077.28;;;18.74;11.43
64698;BME280;51124;53.394;-6.294;2022-10-17T10:15:50;100090.82;;;19.30;10.89
64698;BME280;51124;53.394;-6.294;2022-10-17T10:18:28;100099.34;;;18.83;10.73
64698;BME280;51124;53.394;-6.294;2022-10-17T10:21:04;100121.78;;;18.31;10.65
64698;BME280;51124;53.394;-6.294;2022-10-17T10:23:18;100118.85;;;18.58;10.62
64698;BME280;51124;53.394;-6.294;2022-10-17T10:25:54;100108.84;;;19.86;10.10
64698;BME280;51124;53.394;-6.294;2022-10-17T10:28:18;100113.12;;;19.97;10.27
64698;BME280;51124;53.394;-6.294;2022-10-17T10:30:53;100123.30;;;19.91;10.06
64698;BME280;51124;53.394;-6.294;2022-10-17T10:33:19;100123.52;;;19.85;9.74
64698;BME280;51124;53.394;-6.294;2022-10-17T10:35:51;100157.72;;;19.16;10.07
64698;BME280;51124;53.394;-6.294;2022-10-17T10:38:17;100154.71;;;19.79;9.86
64698;BME280;51124;53.394;-6.294;2022-10-17T10:40:45;100174.16;;;19.47;9.96
64698;BME280;51124;53.394;-6.294;2022-10-17T10:43:20;100169.11;;;20.72;9.60
64698;BME280;51124;53.394;-6.294;2022-10-17T10:45:41;100176.56;;;20.70;9.42
64698;BME280;51124;53.394;-6.294;2022-10-17T10:48:16;100179.56;;;21.96;9.15
64698;BME280;51124;53.394;-6.294;2022-10-17T10:50:32;100185.20;;;19.61;9.61
64698;BME280;51124;53.394;-6.294;2022-10-17T10:53:26;100199.72;;;21.42;9.24
64698;BME280;51124;53.394;-6.294;2022-10-17T10:55:35;100207.45;;;21.63;9.24
64698;BME280;51124;53.394;-6.294;2022-10-17T10:58:03;100207.35;;;21.12;9.31
64698;BME280;51124;53.394;-6.294;2022-10-17T11:00:31;100221.88;;;20.14;9.67
64698;BME280;51124;53.394;-6.294;2022-10-17T11:03:01;100220.37;;;21.07;9.42
64698;BME280;51124;53.394;-6.294;2022-10-17T11:05:39;100233.60;;;21.04;9.25
64698;BME280;51124;53.394;-6.294;2022-10-17T11:08:11;100234.45;;;22.08;8.96
64698;BME280;51124;53.394;-6.294;2022-10-17T11:10:41;100244.28;;;22.20;8.92
64698;BME280;51124;53.394;-6.294;2022-10-17T11:13:10;100256.20;;;22.87;8.73
64698;BME280;51124;53.394;-6.294;2022-10-17T11:15:50;100264.08;;;21.33;9.15
64698;BME280;51124;53.394;-6.294;2022-10-17T11:18:07;100248.60;;;22.97;8.22
64698;BME280;51124;53.394;-6.294;2022-10-17T11:20:40;100278.39;;;21.50;8.10
64698;BME280;51124;53.394;-6.294;2022-10-17T11:23:14;100298.96;;;22.89;7.91
64698;BME280;51124;53.394;-6.294;2022-10-17T11:25:40;100298.87;;;21.74;8.08
64698;BME280;51124;53.394;-6.294;2022-10-17T11:28:12;100292.20;;;22.09;8.12
64698;BME280;51124;53.394;-6.294;2022-10-17T11:30:43;100305.37;;;22.50;8.22
64698;BME280;51124;53.394;-6.294;2022-10-17T11:33:10;100314.03;;;21.87;8.31
64698;BME280;51124;53.394;-6.294;2022-10-17T11:35:38;100310.97;;;21.72;8.28
64698;BME280;51124;53.394;-6.294;2022-10-17T11:38:15;100319.40;;;22.41;8.30
64698;BME280;51124;53.394;-6.294;2022-10-17T11:40:33;100331.14;;;22.27;8.47
64698;BME280;51124;53.394;-6.294;2022-10-17T11:43:01;100332.77;;;22.26;8.54
64698;BME280;51124;53.394;-6.294;2022-10-17T11:45:30;100330.62;;;21.30;8.75
64698;BME280;51124;53.394;-6.294;2022-10-17T11:47:59;100329.73;;;22.04;8.57
64698;BME280;51124;53.394;-6.294;2022-10-17T11:50:28;100338.75;;;22.21;8.41
64698;BME280;51124;53.394;-6.294;2022-10-17T11:52:55;100353.16;;;22.70;8.30
64698;BME280;51124;53.394;-6.294;2022-10-17T11:55:23;100357.10;;;22.53;8.49
64698;BME280;51124;53.394;-6.294;2022-10-17T11:58:04;100356.71;;;25.32;8.75
64698;BME280;51124;53.394;-6.294;2022-10-17T12:00:29;100368.00;;;24.48;9.27
64698;BME280;51124;53.394;-6.294;2022-10-17T12:03:03;100348.99;;;23.42;9.46
64698;BME280;51124;53.394;-6.294;2022-10-17T12:05:26;100360.45;;;26.12;9.72
64698;BME280;51124;53.394;-6.294;2022-10-17T12:07:47;100354.38;;;25.64;10.15
64698;BME280;51124;53.394;-6.294;2022-10-17T12:10:27;100383.97;;;25.25;10.58
64698;BME280;51124;53.394;-6.294;2022-10-17T12:12:43;100375.32;;;24.16;10.98
64698;BME280;51124;53.394;-6.294;2022-10-17T12:15:33;100381.70;;;24.73;11.09
64698;BME280;51124;53.394;-6.294;2022-10-17T12:17:53;100379.06;;;24.81;10.81
64698;BME280;51124;53.394;-6.294;2022-10-17T12:20:29;100390.28;;;24.30;11.23
64698;BME280;51124;53.394;-6.294;2022-10-17T12:22:46;100387.26;;;24.69;11.00
64698;BME280;51124;53.394;-6.294;2022-10-17T12:25:17;100407.74;;;24.45;11.03
64698;BME280;51124;53.394;-6.294;2022-10-17T12:27:42;100410.78;;;25.04;10.86
64698;BME280;51124;53.394;-6.294;2022-10-17T12:30:17;100408.42;;;24.67;11.13
64698;BME280;51124;53.394;-6.294;2022-10-17T12:32:32;100411.51;;;23.87;11.14
64698;BME280;51124;53.394;-6.294;2022-10-17T12:35:18;100415.86;;;25.70;10.86
64698;BME280;51124;53.394;-6.294;2022-10-17T12:38:38;100419.53;;;24.58;10.89
64698;BME280;51124;53.394;-6.294;2022-10-17T12:40:00;100404.96;;;24.95;10.83
64698;BME280;51124;53.394;-6.294;2022-10-17T12:42:50;100416.35;;;24.56;10.92
64698;BME280;51124;53.394;-6.294;2022-10-17T12:45:44;100410.75;;;25.78;10.67
64698;BME280;51124;53.394;-6.294;2022-10-17T12:47:38;100421.68;;;25.89;10.64
64698;BME280;51124;53.394;-6.294;2022-10-17T12:51:00;100401.97;;;25.77;10.62
64698;BME280;51124;53.394;-6.294;2022-10-17T12:53:01;100396.85;;;25.69;10.57
64698;BME280;51124;53.394;-6.294;2022-10-17T12:55:18;100425.13;;;24.39;10.56
64698;BME280;51124;53.394;-6.294;2022-10-17T12:57:53;100417.75;;;23.59;10.08
64698;BME280;51124;53.394;-6.294;2022-10-17T13:00:22;100415.43;;;23.58;9.70
64698;BME280;51124;53.394;-6.294;2022-10-17T13:02:46;100423.35;;;24.70;9.33
64698;BME280;51124;53.394;-6.294;2022-10-17T13:05:26;100418.55;;;23.22;9.29
64698;BME280;51124;53.394;-6.294;2022-10-17T13:07:50;100430.34;;;23.07;8.86
64698;BME280;51124;53.394;-6.294;2022-10-17T13:10:27;100443.73;;;23.56;8.65